createdAt,value
2022-09-02T00:00:09.904Z,959.72
2022-09-02T00:01:09.973Z,959.7
2022-09-02T00:02:10.184Z,959.73
2022-09-02T00:03:10.145Z,959.75
2022-09-02T00:04:09.983Z,959.74
2022-09-02T00:05:09.918Z,959.73
2022-09-02T00:07:09.984Z,959.75
2022-09-02T00:08:10.058Z,959.73
2022-09-02T00:09:10.033Z,959.71
2022-09-02T00:10:09.917Z,959.7
2022-09-02T00:11:10.065Z,959.73
2022-09-02T00:12:10.032Z,959.71
2022-09-02T00:13:09.992Z,959.68
2022-09-02T00:14:09.960Z,959.67
2022-09-02T00:15:10.028Z,959.66
2022-09-02T00:16:09.944Z,959.62
2022-09-02T00:17:11.303Z,959.68
2022-09-02T00:18:10.279Z,959.65
2022-09-02T00:19:10.247Z,959.67
2022-09-02T00:20:10.078Z,959.65
2022-09-02T00:21:10.046Z,959.62
2022-09-02T00:23:10.078Z,959.6
2022-09-02T00:24:09.951Z,959.57
2022-09-02T00:25:09.960Z,959.54
2022-09-02T00:26:10.077Z,959.55
2022-09-02T00:27:10.055Z,959.59
2022-09-02T00:28:10.119Z,959.56
2022-09-02T00:30:10.052Z,959.55
2022-09-02T00:32:10.014Z,959.59
2022-09-02T00:33:09.973Z,959.58
2022-09-02T00:34:11.431Z,959.61
2022-09-02T00:35:09.986Z,959.59
2022-09-02T00:36:10.060Z,959.58
2022-09-02T00:37:10.134Z,959.61
2022-09-02T00:38:10.097Z,959.56
2022-09-02T00:40:10.980Z,959.57
2022-09-02T00:41:10.100Z,959.59
2022-09-02T00:42:10.061Z,959.57
2022-09-02T00:44:10.013Z,959.58
2022-09-02T00:45:10.078Z,959.54
2022-09-02T00:46:10.078Z,959.59
2022-09-02T00:47:10.116Z,959.57
2022-09-02T00:48:10.068Z,959.55
2022-09-02T00:49:10.043Z,959.52
2022-09-02T00:50:10.116Z,959.53
2022-09-02T00:51:10.016Z,959.51
2022-09-02T00:52:10.151Z,959.5
2022-09-02T00:53:10.032Z,959.51
2022-09-02T00:54:10.088Z,959.48
2022-09-02T00:55:11.077Z,959.44
2022-09-02T00:56:10.041Z,959.46
2022-09-02T00:58:10.055Z,959.44
2022-09-02T00:59:10.126Z,959.42
2022-09-02T01:00:10.095Z,959.46
2022-09-02T01:02:10.329Z,959.48
2022-09-02T01:03:10.102Z,959.52
2022-09-02T01:04:10.165Z,959.49
2022-09-02T01:07:10.169Z,959.5
2022-09-02T01:08:10.061Z,959.53
2022-09-02T01:09:10.080Z,959.52
2022-09-02T01:10:10.173Z,959.5
2022-09-02T01:12:10.217Z,959.52
2022-09-02T01:13:10.067Z,959.51
2022-09-02T01:14:10.146Z,959.48
2022-09-02T01:15:10.106Z,959.53
2022-09-02T01:16:10.208Z,959.51
2022-09-02T01:17:10.158Z,959.54
2022-09-02T01:18:10.225Z,959.48
2022-09-02T01:20:10.153Z,959.45
2022-09-02T01:21:10.144Z,959.47
2022-09-02T01:23:10.162Z,959.43
2022-09-02T01:24:10.099Z,959.46
2022-09-02T01:25:10.100Z,959.49
2022-09-02T01:26:10.267Z,959.48
2022-09-02T01:27:10.237Z,959.47
2022-09-02T01:28:10.193Z,959.49
2022-09-02T01:29:10.194Z,959.5
2022-09-02T01:31:10.225Z,959.49
2022-09-02T01:32:10.175Z,959.5
2022-09-02T01:33:10.130Z,959.46
2022-09-02T01:34:10.118Z,959.49
2022-09-02T01:35:10.176Z,959.48
2022-09-02T01:36:10.135Z,959.5
2022-09-02T01:37:10.214Z,959.46
2022-09-02T01:38:10.273Z,959.48
2022-09-02T01:39:10.139Z,959.44
2022-09-02T01:40:10.242Z,959.48
2022-09-02T01:42:10.260Z,959.45
2022-09-02T01:46:10.247Z,959.47
2022-09-02T01:47:10.195Z,959.46
2022-09-02T01:51:10.160Z,959.44
2022-09-02T01:52:10.234Z,959.45
2022-09-02T01:54:10.277Z,959.44
2022-09-02T01:55:10.244Z,959.43
2022-09-02T01:56:11.443Z,959.44
2022-09-02T01:57:10.182Z,959.4
2022-09-02T01:58:10.175Z,959.44
2022-09-02T01:59:10.322Z,959.42
2022-09-02T02:01:10.227Z,959.41
2022-09-02T02:02:10.243Z,959.38
2022-09-02T02:03:10.289Z,959.37
2022-09-02T02:04:13.388Z,959.39
2022-09-02T02:05:10.201Z,959.38
2022-09-02T02:06:10.291Z,959.41
2022-09-02T02:07:10.351Z,959.39
2022-09-02T02:08:10.213Z,959.35
2022-09-02T02:09:10.208Z,959.38
2022-09-02T02:10:10.355Z,959.36
2022-09-02T02:11:10.326Z,959.39
2022-09-02T02:12:10.297Z,959.4
2022-09-02T02:13:10.358Z,959.41
2022-09-02T02:15:10.225Z,959.4
2022-09-02T02:16:10.477Z,959.37
2022-09-02T02:17:10.236Z,959.4
2022-09-02T02:18:10.303Z,959.38
2022-09-02T02:20:10.336Z,959.42
2022-09-02T02:21:10.313Z,959.41
2022-09-02T02:22:11.613Z,959.39
2022-09-02T02:23:10.258Z,959.4
2022-09-02T02:24:10.375Z,959.42
2022-09-02T02:25:10.239Z,959.39
2022-09-02T02:26:10.353Z,959.38
2022-09-02T02:28:11.803Z,959.41
2022-09-02T02:29:10.351Z,959.43
2022-09-02T02:30:10.260Z,959.38
2022-09-02T02:31:10.404Z,959.4
2022-09-02T02:33:10.302Z,959.41
2022-09-02T02:34:10.310Z,959.4
2022-09-02T02:35:10.355Z,959.39
2022-09-02T02:36:10.268Z,959.33
2022-09-02T02:37:10.391Z,959.37
2022-09-02T02:38:10.372Z,959.33
2022-09-02T02:39:10.610Z,959.36
2022-09-02T02:40:10.295Z,959.33
2022-09-02T02:41:10.301Z,959.36
2022-09-02T02:43:10.294Z,959.34
2022-09-02T02:44:10.371Z,959.36
2022-09-02T02:45:13.001Z,959.34
2022-09-02T02:46:10.338Z,959.31
2022-09-02T02:47:10.364Z,959.33
2022-09-02T02:48:10.446Z,959.32
2022-09-02T02:50:10.377Z,959.3
2022-09-02T02:51:10.446Z,959.31
2022-09-02T02:52:10.417Z,959.3
2022-09-02T02:53:10.380Z,959.27
2022-09-02T02:54:10.308Z,959.29
2022-09-02T02:55:10.419Z,959.3
2022-09-02T02:56:10.394Z,959.33
2022-09-02T02:58:10.334Z,959.32
2022-09-02T02:59:10.395Z,959.36
2022-09-02T03:01:10.437Z,959.35
2022-09-02T03:02:11.464Z,959.34
2022-09-02T03:03:10.577Z,959.41
2022-09-02T03:04:10.427Z,959.42
2022-09-02T03:05:10.344Z,959.39
2022-09-02T03:06:10.422Z,959.37
2022-09-02T03:08:10.536Z,959.36
2022-09-02T03:09:10.354Z,959.37
2022-09-02T03:10:10.434Z,959.36
2022-09-02T03:12:10.467Z,959.4
2022-09-02T03:13:10.446Z,959.39
2022-09-02T03:14:10.353Z,959.42
2022-09-02T03:15:10.480Z,959.41
2022-09-02T03:16:10.498Z,959.42
2022-09-02T03:18:10.486Z,959.45
2022-09-02T03:19:10.461Z,959.43
2022-09-02T03:20:10.420Z,959.36
2022-09-02T03:21:10.486Z,959.39
2022-09-02T03:22:10.376Z,959.38
2022-09-02T03:23:10.426Z,959.4
2022-09-02T03:24:10.395Z,959.39
2022-09-02T03:25:10.382Z,959.41
2022-09-02T03:26:10.536Z,959.42
2022-09-02T03:27:10.490Z,959.39
2022-09-02T03:28:10.399Z,959.42
2022-09-02T03:29:10.535Z,959.41
2022-09-02T03:30:10.404Z,959.42
2022-09-02T03:31:10.503Z,959.41
2022-09-02T03:32:10.542Z,959.4
2022-09-02T03:33:10.508Z,959.41
2022-09-02T03:34:10.472Z,959.42
2022-09-02T03:35:10.551Z,959.39
2022-09-02T03:36:10.512Z,959.41
2022-09-02T03:38:10.550Z,959.4
2022-09-02T03:39:10.424Z,959.42
2022-09-02T03:40:10.545Z,959.44
2022-09-02T03:41:10.554Z,959.43
2022-09-02T03:43:10.591Z,959.49
2022-09-02T03:44:10.566Z,959.42
2022-09-02T03:45:10.525Z,959.46
2022-09-02T03:46:10.498Z,959.44
2022-09-02T03:48:10.539Z,959.47
2022-09-02T03:49:10.443Z,959.45
2022-09-02T03:50:10.451Z,959.42
2022-09-02T03:51:10.530Z,959.45
2022-09-02T03:52:10.602Z,959.42
2022-09-02T03:53:18.068Z,959.41
2022-09-02T03:54:10.802Z,959.39
2022-09-02T03:55:10.450Z,959.42
2022-09-02T03:57:10.463Z,959.39
2022-09-02T03:58:10.466Z,959.4
2022-09-02T03:59:10.575Z,959.39
2022-09-02T04:00:10.537Z,959.4
2022-09-02T04:04:10.620Z,959.42
2022-09-02T04:05:13.719Z,959.43
2022-09-02T04:06:10.643Z,959.44
2022-09-02T04:07:11.822Z,959.41
2022-09-02T04:09:10.501Z,959.39
2022-09-02T04:10:10.491Z,959.38
2022-09-02T04:11:10.595Z,959.35
2022-09-02T04:12:11.849Z,959.36
2022-09-02T04:14:10.623Z,959.34
2022-09-02T04:15:10.576Z,959.33
2022-09-02T04:16:10.789Z,959.35
2022-09-02T04:17:10.513Z,959.37
2022-09-02T04:18:10.512Z,959.34
2022-09-02T04:19:10.522Z,959.38
2022-09-02T04:20:10.602Z,959.37
2022-09-02T04:21:10.600Z,959.38
2022-09-02T04:22:10.525Z,959.36
2022-09-02T04:23:10.607Z,959.37
2022-09-02T04:24:11.933Z,959.38
2022-09-02T04:25:10.643Z,959.41
2022-09-02T04:26:10.531Z,959.44
2022-09-02T04:27:10.688Z,959.39
2022-09-02T04:29:10.617Z,959.41
2022-09-02T04:30:10.691Z,959.45
2022-09-02T04:31:10.722Z,959.44
2022-09-02T04:32:10.621Z,959.43
2022-09-02T04:33:10.540Z,959.45
2022-09-02T04:34:10.656Z,959.46
2022-09-02T04:35:10.624Z,959.43
2022-09-02T04:36:10.697Z,959.42
2022-09-02T04:37:10.832Z,959.45
2022-09-02T04:38:10.632Z,959.42
2022-09-02T04:39:10.560Z,959.43
2022-09-02T04:40:10.629Z,959.41
2022-09-02T04:41:10.635Z,959.37
2022-09-02T04:42:10.566Z,959.42
2022-09-02T04:43:10.571Z,959.37
2022-09-02T04:44:11.567Z,959.43
2022-09-02T04:45:10.705Z,959.44
2022-09-02T04:46:10.622Z,959.38
2022-09-02T04:47:10.639Z,959.35
2022-09-02T04:48:10.605Z,959.38
2022-09-02T04:49:10.588Z,959.41
2022-09-02T04:50:10.646Z,959.39
2022-09-02T04:51:10.726Z,959.43
2022-09-02T04:52:10.687Z,959.34
2022-09-02T04:53:10.657Z,959.4
2022-09-02T04:54:10.721Z,959.42
2022-09-02T04:55:10.685Z,959.4
2022-09-02T04:56:10.753Z,959.41
2022-09-02T04:57:10.725Z,959.4
2022-09-02T04:59:10.650Z,959.39
2022-09-02T05:02:10.813Z,959.42
2022-09-02T05:03:10.741Z,959.43
2022-09-02T05:04:10.702Z,959.4
2022-09-02T05:05:10.628Z,959.43
2022-09-02T05:06:10.735Z,959.41
2022-09-02T05:07:10.704Z,959.4
2022-09-02T05:08:11.717Z,959.42
2022-09-02T05:09:10.737Z,959.38
2022-09-02T05:10:10.710Z,959.36
2022-09-02T05:11:10.777Z,959.4
2022-09-02T05:12:10.740Z,959.38
2022-09-02T05:13:10.707Z,959.37
2022-09-02T05:14:10.651Z,959.38
2022-09-02T05:15:10.651Z,959.41
2022-09-02T05:16:10.762Z,959.38
2022-09-02T05:17:10.686Z,959.4
2022-09-02T05:18:10.750Z,959.39
2022-09-02T05:20:11.792Z,959.41
2022-09-02T05:21:10.754Z,959.43
2022-09-02T05:22:10.821Z,959.44
2022-09-02T05:24:10.761Z,959.48
2022-09-02T05:25:11.837Z,959.46
2022-09-02T05:26:10.799Z,959.5
2022-09-02T05:27:10.766Z,959.48
2022-09-02T05:28:10.836Z,959.45
2022-09-02T05:29:10.702Z,959.46
2022-09-02T05:30:10.770Z,959.48
2022-09-02T05:32:10.805Z,959.45
2022-09-02T05:33:10.770Z,959.46
2022-09-02T05:34:12.533Z,959.44
2022-09-02T05:35:10.811Z,959.48
2022-09-02T05:36:10.779Z,959.45
2022-09-02T05:38:10.811Z,959.44
2022-09-02T05:41:10.936Z,959.45
2022-09-02T05:43:10.853Z,959.47
2022-09-02T05:44:10.820Z,959.45
2022-09-02T05:45:10.728Z,959.47
2022-09-02T05:46:10.916Z,959.45
2022-09-02T05:47:10.823Z,959.46
2022-09-02T05:49:10.743Z,959.48
2022-09-02T05:50:10.830Z,959.47
2022-09-02T05:51:11.053Z,959.46
2022-09-02T05:53:14.296Z,959.49
2022-09-02T05:54:10.801Z,959.47
2022-09-02T05:55:10.872Z,959.49
2022-09-02T05:56:10.840Z,959.46
2022-09-02T05:57:10.803Z,959.51
2022-09-02T05:58:10.882Z,959.48
2022-09-02T05:59:10.758Z,959.5
2022-09-02T06:00:10.906Z,959.51
2022-09-02T06:01:10.768Z,959.48
2022-09-02T06:02:10.877Z,959.51
2022-09-02T06:03:11.022Z,959.5
2022-09-02T06:04:10.884Z,959.54
2022-09-02T06:06:10.915Z,959.51
2022-09-02T06:07:11.701Z,959.52
2022-09-02T06:08:10.844Z,959.55
2022-09-02T06:09:10.922Z,959.51
2022-09-02T06:10:10.895Z,959.53
2022-09-02T06:11:10.858Z,959.52
2022-09-02T06:12:10.931Z,959.56
2022-09-02T06:13:10.794Z,959.55
2022-09-02T06:14:10.861Z,959.58
2022-09-02T06:15:10.839Z,959.59
2022-09-02T06:19:11.118Z,959.62
2022-09-02T06:20:11.832Z,959.64
2022-09-02T06:21:10.976Z,959.63
2022-09-02T06:22:11.434Z,959.62
2022-09-02T06:23:10.976Z,959.63
2022-09-02T06:24:10.837Z,959.65
2022-09-02T06:25:10.906Z,959.62
2022-09-02T06:26:10.885Z,959.67
2022-09-02T06:28:10.830Z,959.68
2022-09-02T06:29:10.987Z,959.66
2022-09-02T06:30:10.835Z,959.68
2022-09-02T06:32:10.837Z,959.61
2022-09-02T06:33:10.846Z,959.6
2022-09-02T06:34:10.844Z,959.63
2022-09-02T06:35:10.903Z,959.59
2022-09-02T06:36:10.959Z,959.58
2022-09-02T06:38:10.891Z,959.6
2022-09-02T06:39:10.871Z,959.58
2022-09-02T06:40:10.874Z,959.56
2022-09-02T06:41:12.326Z,959.55
2022-09-02T06:42:10.970Z,959.53
2022-09-02T06:43:10.928Z,959.5
2022-09-02T06:44:11.108Z,959.54
2022-09-02T06:45:10.973Z,959.5
2022-09-02T06:46:10.897Z,959.52
2022-09-02T06:47:10.906Z,959.49
2022-09-02T06:48:10.979Z,959.47
2022-09-02T06:49:10.956Z,959.51
2022-09-02T06:50:11.017Z,959.52
2022-09-02T06:52:10.955Z,959.54
2022-09-02T06:53:10.921Z,959.51
2022-09-02T06:55:10.975Z,959.49
2022-09-02T06:56:11.025Z,959.48
2022-09-02T06:57:10.892Z,959.47
2022-09-02T06:58:10.952Z,959.45
2022-09-02T06:59:11.023Z,959.52
2022-09-02T07:00:10.902Z,959.48
2022-09-02T07:01:10.931Z,959.52
2022-09-02T07:02:11.109Z,959.48
2022-09-02T07:03:10.996Z,959.47
2022-09-02T07:05:10.919Z,959.54
2022-09-02T07:06:11.008Z,959.8
2022-09-02T07:07:12.487Z,960.05
2022-09-02T07:08:11.043Z,960.23
2022-09-02T07:09:11.004Z,960.37
2022-09-02T07:10:10.978Z,960.47
2022-09-02T07:11:11.047Z,960.45
2022-09-02T07:12:10.931Z,960.47
2022-09-02T07:13:11.178Z,960.46
2022-09-02T07:15:11.020Z,960.49
2022-09-02T07:16:11.151Z,960.43
2022-09-02T07:18:10.951Z,960.34
2022-09-02T07:19:14.209Z,960.23
2022-09-02T07:21:11.025Z,960.21
2022-09-02T07:22:10.952Z,960.14
2022-09-02T07:23:11.061Z,960.16
2022-09-02T07:25:10.992Z,960.09
2022-09-02T07:26:11.063Z,959.94
2022-09-02T07:28:11.025Z,959.69
2022-09-02T07:29:10.993Z,959.62
2022-09-02T07:30:11.131Z,959.63
2022-09-02T07:31:11.136Z,959.61
2022-09-02T07:32:11.065Z,959.59
2022-09-02T07:33:11.038Z,959.55
2022-09-02T07:34:11.002Z,959.42
2022-09-02T07:35:11.076Z,959.43
2022-09-02T07:36:12.259Z,959.39
2022-09-02T07:37:11.269Z,959.35
2022-09-02T07:38:10.998Z,959.34
2022-09-02T07:39:11.004Z,959.3
2022-09-02T07:40:11.142Z,959.26
2022-09-02T07:41:11.005Z,959.28
2022-09-02T07:42:11.078Z,959.29
2022-09-02T07:44:11.024Z,959.33
2022-09-02T07:45:11.024Z,959.38
2022-09-02T07:46:11.047Z,959.47
2022-09-02T07:47:11.020Z,959.54
2022-09-02T07:48:11.062Z,959.48
2022-09-02T07:49:11.127Z,959.41
2022-09-02T07:50:20.518Z,959.38
2022-09-02T07:51:11.165Z,959.31
2022-09-02T07:52:11.133Z,959.28
2022-09-02T07:53:11.193Z,959.29
2022-09-02T07:54:11.063Z,959.37
2022-09-02T07:55:14.618Z,959.47
2022-09-02T07:56:11.236Z,959.55
2022-09-02T07:57:11.054Z,959.6
2022-09-02T07:58:11.148Z,959.65
2022-09-02T07:59:11.243Z,959.69
2022-09-02T08:00:11.171Z,959.79
2022-09-02T08:01:11.214Z,959.85
2022-09-02T08:02:11.078Z,959.78
2022-09-02T08:03:11.069Z,959.85
2022-09-02T08:05:11.106Z,959.8
2022-09-02T08:06:11.070Z,959.85
2022-09-02T08:07:11.074Z,959.89
2022-09-02T08:08:11.060Z,959.87
2022-09-02T08:09:11.093Z,959.84
2022-09-02T08:11:11.081Z,959.82
2022-09-02T08:12:11.194Z,959.83
2022-09-02T08:14:11.097Z,959.75
2022-09-02T08:15:11.197Z,959.76
2022-09-02T08:16:11.150Z,959.8
2022-09-02T08:18:19.168Z,959.81
2022-09-02T08:19:11.168Z,959.77
2022-09-02T08:21:11.108Z,959.72
2022-09-02T08:22:11.139Z,959.66
2022-09-02T08:23:18.419Z,959.69
2022-09-02T08:25:11.116Z,959.75
2022-09-02T08:26:11.246Z,959.74
2022-09-02T08:27:11.121Z,959.76
2022-09-02T08:28:11.186Z,959.71
2022-09-02T08:29:11.248Z,959.68
2022-09-02T08:30:11.122Z,959.66
2022-09-02T08:31:11.125Z,959.65
2022-09-02T08:32:11.198Z,959.62
2022-09-02T08:33:11.214Z,959.66
2022-09-02T08:34:11.130Z,959.6
2022-09-02T08:35:11.142Z,959.53
2022-09-02T08:37:11.140Z,959.52
2022-09-02T08:38:11.130Z,959.58
2022-09-02T08:39:11.210Z,959.59
2022-09-02T08:40:12.625Z,959.51
2022-09-02T08:41:11.274Z,959.56
2022-09-02T08:42:11.242Z,959.53
2022-09-02T08:44:11.280Z,959.54
2022-09-02T08:45:11.156Z,959.5
2022-09-02T08:46:11.316Z,959.48
2022-09-02T08:48:11.246Z,959.41
2022-09-02T08:49:11.202Z,959.39
2022-09-02T08:50:11.282Z,959.36
2022-09-02T08:51:11.182Z,959.38
2022-09-02T08:52:14.735Z,959.37
2022-09-02T08:53:11.324Z,959.31
2022-09-02T08:54:11.197Z,959.33
2022-09-02T08:55:11.213Z,959.31
2022-09-02T08:57:11.194Z,959.33
2022-09-02T08:59:11.187Z,959.34
2022-09-02T09:00:11.258Z,959.29
2022-09-02T09:01:11.301Z,959.26
2022-09-02T09:02:11.309Z,959.22
2022-09-02T09:03:12.214Z,959.16
2022-09-02T09:04:11.210Z,959.15
2022-09-02T09:05:11.301Z,959.12
2022-09-02T09:06:12.247Z,959.16
2022-09-02T09:07:11.234Z,959.12
2022-09-02T09:08:13.869Z,959.17
2022-09-02T09:09:11.383Z,959.18
2022-09-02T09:10:11.238Z,959.15
2022-09-02T09:11:11.304Z,959.13
2022-09-02T09:12:11.399Z,959.19
2022-09-02T09:13:11.241Z,959.2
2022-09-02T09:14:11.311Z,959.22
2022-09-02T09:15:11.261Z,959.21
2022-09-02T09:16:11.258Z,959.23
2022-09-02T09:17:11.255Z,959.19
2022-09-02T09:18:11.281Z,959.15
2022-09-02T09:20:11.324Z,959.2
2022-09-02T09:21:11.500Z,959.15
2022-09-02T09:22:11.363Z,959.17
2022-09-02T09:23:11.335Z,959.13
2022-09-02T09:24:11.400Z,959.02
2022-09-02T09:25:11.265Z,958.9
2022-09-02T09:26:11.332Z,958.94
2022-09-02T09:27:11.275Z,958.88
2022-09-02T09:28:11.363Z,958.9
2022-09-02T09:29:11.269Z,958.93
2022-09-02T09:30:14.947Z,958.91
2022-09-02T09:31:11.412Z,958.88
2022-09-02T09:32:11.289Z,958.87
2022-09-02T09:33:11.406Z,958.89
2022-09-02T09:35:12.422Z,958.91
2022-09-02T09:36:13.527Z,958.92
2022-09-02T09:37:11.289Z,958.93
2022-09-02T09:38:11.455Z,958.94
2022-09-02T09:39:11.414Z,958.91
2022-09-02T09:40:11.326Z,958.92
2022-09-02T09:41:11.447Z,958.88
2022-09-02T09:42:11.415Z,958.86
2022-09-02T09:44:11.356Z,958.83
2022-09-02T09:45:11.419Z,958.84
2022-09-02T09:46:11.416Z,958.79
2022-09-02T09:47:14.749Z,958.82
2022-09-02T09:48:11.324Z,958.84
2022-09-02T09:49:11.404Z,958.83
2022-09-02T09:50:11.332Z,958.88
2022-09-02T09:51:11.448Z,958.9
2022-09-02T09:52:11.327Z,958.91
2022-09-02T09:53:11.365Z,958.87
2022-09-02T09:55:12.467Z,958.8
2022-09-02T09:58:11.597Z,958.77
2022-09-02T09:59:11.359Z,958.71
2022-09-02T10:00:11.353Z,958.72
2022-09-02T10:01:11.449Z,958.69
2022-09-02T10:02:11.427Z,958.67
2022-09-02T10:03:11.453Z,958.65
2022-09-02T10:04:32.600Z,958.66
2022-09-02T10:05:11.386Z,958.67
2022-09-02T10:06:11.455Z,958.7
2022-09-02T10:07:11.395Z,958.71
2022-09-02T10:08:15.207Z,958.73
2022-09-02T10:09:11.386Z,958.76
2022-09-02T10:10:11.476Z,958.75
2022-09-02T10:11:11.495Z,958.77
2022-09-02T10:12:11.375Z,958.72
2022-09-02T10:13:11.474Z,958.67
2022-09-02T10:14:11.389Z,958.62
2022-09-02T10:15:12.546Z,958.6
2022-09-02T10:16:11.557Z,958.56
2022-09-02T10:17:11.504Z,958.6
2022-09-02T10:18:11.495Z,958.63
2022-09-02T10:19:11.433Z,958.66
2022-09-02T10:20:11.496Z,958.68
2022-09-02T10:21:15.232Z,958.69
2022-09-02T10:23:11.512Z,958.62
2022-09-02T10:24:11.417Z,958.57
2022-09-02T10:25:11.437Z,958.5
2022-09-02T10:27:11.423Z,958.54
2022-09-02T10:28:11.431Z,958.58
2022-09-02T10:29:11.427Z,958.53
2022-09-02T10:31:11.509Z,958.53
2022-09-02T10:32:11.513Z,958.49
2022-09-02T10:33:11.588Z,958.48
2022-09-02T10:35:11.521Z,958.45
2022-09-02T10:36:15.491Z,958.44
2022-09-02T10:37:11.563Z,958.42
2022-09-02T10:38:11.541Z,958.47
2022-09-02T10:39:11.460Z,958.52
2022-09-02T10:40:11.461Z,958.54
2022-09-02T10:41:11.532Z,958.56
2022-09-02T10:42:11.493Z,958.58
2022-09-02T10:43:11.567Z,958.6
2022-09-02T10:45:11.519Z,958.58
2022-09-02T10:46:11.569Z,958.6
2022-09-02T10:47:11.539Z,958.61
2022-09-02T10:48:11.530Z,958.6
2022-09-02T10:49:11.582Z,958.62
2022-09-02T10:50:11.543Z,958.58
2022-09-02T10:51:11.498Z,958.59
2022-09-02T10:52:11.547Z,958.6
2022-09-02T10:53:11.595Z,958.52
2022-09-02T10:54:11.505Z,958.53
2022-09-02T10:55:11.509Z,958.51
2022-09-02T10:56:11.551Z,958.48
2022-09-02T10:57:11.502Z,958.47
2022-09-02T10:58:11.591Z,958.37
2022-09-02T10:59:11.659Z,958.36
2022-09-02T11:00:11.516Z,958.33
2022-09-02T11:01:11.601Z,958.27
2022-09-02T11:02:11.518Z,958.3
2022-09-02T11:03:11.591Z,958.29
2022-09-02T11:04:11.607Z,958.26
2022-09-02T11:05:11.523Z,958.23
2022-09-02T11:06:11.630Z,958.24
2022-09-02T11:07:11.610Z,958.25
2022-09-02T11:08:11.539Z,958.28
2022-09-02T11:09:11.533Z,958.29
2022-09-02T11:10:11.540Z,958.26
2022-09-02T11:11:11.578Z,958.29
2022-09-02T11:12:11.641Z,958.28
2022-09-02T11:14:11.538Z,958.27
2022-09-02T11:15:11.547Z,958.3
2022-09-02T11:16:11.761Z,958.33
2022-09-02T11:17:12.792Z,958.28
2022-09-02T11:18:11.641Z,958.31
2022-09-02T11:19:11.557Z,958.35
2022-09-02T11:20:11.553Z,958.37
2022-09-02T11:21:11.558Z,958.35
2022-09-02T11:22:11.620Z,958.34
2022-09-02T11:23:11.573Z,958.28
2022-09-02T11:24:11.660Z,958.18
2022-09-02T11:25:11.569Z,958.17
2022-09-02T11:26:11.579Z,958.09
2022-09-02T11:27:25.727Z,958.12
2022-09-02T11:28:14.438Z,958.11
2022-09-02T11:29:11.704Z,958.16
2022-09-02T11:30:11.667Z,958.18
2022-09-02T11:32:11.593Z,958.21
2022-09-02T11:33:11.588Z,958.26
2022-09-02T11:34:13.052Z,958.28
2022-09-02T11:35:11.593Z,958.3
2022-09-02T11:37:11.607Z,958.2
2022-09-02T11:38:11.606Z,958.18
2022-09-02T11:39:11.682Z,958.13
2022-09-02T11:40:30.824Z,958.09
2022-09-02T11:41:37.312Z,958.05
2022-09-02T11:42:11.874Z,958.1
2022-09-02T11:43:11.755Z,958.09
2022-09-02T11:44:11.719Z,958.06
2022-09-02T11:45:11.675Z,958.08
2022-09-02T11:46:11.680Z,958.06
2022-09-02T11:48:11.687Z,958.1
2022-09-02T11:49:11.658Z,958.05
2022-09-02T11:50:11.685Z,958.02
2022-09-02T11:51:11.835Z,958.01
2022-09-02T11:52:11.663Z,958.05
2022-09-02T11:54:11.753Z,958.02
2022-09-02T11:55:11.891Z,958.03
2022-09-02T11:56:11.730Z,957.97
2022-09-02T11:57:11.659Z,957.94
2022-09-02T11:58:11.775Z,957.98
2022-09-02T11:59:11.738Z,958.02
2022-09-02T12:00:11.686Z,958.01
2022-09-02T12:01:13.699Z,957.97
2022-09-02T12:02:11.668Z,957.99
2022-09-02T12:03:22.423Z,958.07
2022-09-02T12:05:12.114Z,958.09
2022-09-02T12:06:11.964Z,958.1
2022-09-02T12:07:11.905Z,958.08
2022-09-02T12:09:11.726Z,958
2022-09-02T12:10:11.861Z,958.02
2022-09-02T12:12:11.707Z,958.06
2022-09-02T12:13:11.700Z,958.04
2022-09-02T12:14:11.868Z,958.01
2022-09-02T12:15:11.730Z,958.02
2022-09-02T12:16:11.892Z,957.99
2022-09-02T12:17:11.715Z,957.91
2022-09-02T12:18:11.729Z,957.92
2022-09-02T12:19:11.713Z,957.86
2022-09-02T12:20:11.754Z,957.83
2022-09-02T12:21:16.091Z,957.81
2022-09-02T12:22:11.795Z,957.76
2022-09-02T12:23:11.799Z,957.79
2022-09-02T12:24:11.726Z,957.74
2022-09-02T12:25:11.832Z,957.71
2022-09-02T12:26:15.362Z,957.73
2022-09-02T12:27:11.847Z,957.77
2022-09-02T12:28:11.812Z,957.82
2022-09-02T12:29:11.790Z,957.79
2022-09-02T12:30:11.754Z,957.81
2022-09-02T12:31:11.849Z,957.76
2022-09-02T12:32:11.784Z,957.73
2022-09-02T12:33:11.754Z,957.64
2022-09-02T12:34:11.737Z,957.65
2022-09-02T12:35:11.787Z,957.6
2022-09-02T12:36:11.758Z,957.53
2022-09-02T12:37:11.824Z,957.55
2022-09-02T12:38:11.770Z,957.53
2022-09-02T12:39:11.861Z,957.54
2022-09-02T12:40:13.049Z,957.56
2022-09-02T12:41:12.358Z,957.5
2022-09-02T12:42:11.870Z,957.47
2022-09-02T12:43:11.832Z,957.5
2022-09-02T12:44:11.790Z,957.49
2022-09-02T12:45:11.776Z,957.52
2022-09-02T12:46:11.930Z,957.46
2022-09-02T12:47:11.790Z,957.47
2022-09-02T12:48:11.782Z,957.48
2022-09-02T12:49:11.866Z,957.49
2022-09-02T12:50:11.792Z,957.5
2022-09-02T12:51:11.805Z,957.53
2022-09-02T12:52:11.848Z,957.49
2022-09-02T12:53:11.799Z,957.51
2022-09-02T12:54:11.797Z,957.49
2022-09-02T12:55:11.805Z,957.5
2022-09-02T12:56:12.684Z,957.48
2022-09-02T12:57:11.884Z,957.46
2022-09-02T12:58:11.856Z,957.45
2022-09-02T12:59:11.923Z,957.44
2022-09-02T13:01:11.878Z,957.4
2022-09-02T13:02:11.917Z,957.38
2022-09-02T13:03:11.893Z,957.35
2022-09-02T13:04:11.869Z,957.34
2022-09-02T13:05:11.919Z,957.27
2022-09-02T13:06:11.906Z,957.28
2022-09-02T13:07:11.845Z,957.22
2022-09-02T13:08:11.929Z,957.2
2022-09-02T13:09:11.915Z,957.17
2022-09-02T13:10:11.910Z,957.19
2022-09-02T13:11:11.933Z,957.17
2022-09-02T13:12:11.918Z,957.18
2022-09-02T13:13:11.862Z,957.13
2022-09-02T13:14:11.948Z,957.17
2022-09-02T13:15:11.862Z,957.2
2022-09-02T13:16:13.469Z,957.18
2022-09-02T13:17:32.967Z,957.16
2022-09-02T13:18:12.019Z,957.11
2022-09-02T13:19:11.888Z,957.1
2022-09-02T13:20:11.867Z,957.12
2022-09-02T13:21:11.948Z,957.11
2022-09-02T13:22:11.976Z,957.1
2022-09-02T13:23:11.965Z,957.05
2022-09-02T13:24:11.926Z,957.07
2022-09-02T13:25:13.092Z,957.01
2022-09-02T13:26:19.091Z,957
2022-09-02T13:27:12.142Z,956.95
2022-09-02T13:28:11.995Z,956.93
2022-09-02T13:29:11.961Z,956.89
2022-09-02T13:30:11.919Z,956.83
2022-09-02T13:31:12.136Z,956.84
2022-09-02T13:32:11.888Z,956.8
2022-09-02T13:33:11.994Z,956.81
2022-09-02T13:34:11.937Z,956.73
2022-09-02T13:35:12.003Z,956.74
2022-09-02T13:36:11.932Z,956.66
2022-09-02T13:37:12.006Z,956.68
2022-09-02T13:38:11.981Z,956.74
2022-09-02T13:39:11.930Z,956.76
2022-09-02T13:40:12.001Z,956.77
2022-09-02T13:42:11.929Z,956.81
2022-09-02T13:44:11.974Z,956.83
2022-09-02T13:46:11.966Z,956.77
2022-09-02T13:48:12.047Z,956.78
2022-09-02T13:49:12.023Z,956.8
2022-09-02T13:50:11.932Z,956.83
2022-09-02T13:51:11.958Z,956.82
2022-09-02T13:52:12.019Z,956.78
2022-09-02T13:53:49.556Z,956.7
2022-09-02T13:54:22.923Z,956.68
2022-09-02T13:55:11.953Z,956.69
2022-09-02T13:56:11.979Z,956.68
2022-09-02T13:57:12.060Z,956.69
2022-09-02T13:58:12.021Z,956.67
2022-09-02T13:59:12.019Z,956.72
2022-09-02T14:00:12.227Z,956.73
2022-09-02T14:01:12.103Z,956.72
2022-09-02T14:02:12.081Z,956.69
2022-09-02T14:03:12.160Z,956.78
2022-09-02T14:04:11.985Z,956.79
2022-09-02T14:05:11.980Z,956.8
2022-09-02T14:06:11.983Z,956.76
2022-09-02T14:07:12.075Z,956.78
2022-09-02T14:08:11.997Z,956.74
2022-09-02T14:09:11.992Z,956.77
2022-09-02T14:10:11.989Z,956.73
2022-09-02T14:11:15.572Z,956.7
2022-09-02T14:12:12.073Z,956.68
2022-09-02T14:13:12.156Z,956.7
2022-09-02T14:14:12.129Z,956.61
2022-09-02T14:15:12.091Z,956.59
2022-09-02T14:16:12.023Z,956.63
2022-09-02T14:17:12.014Z,956.62
2022-09-02T14:18:12.087Z,956.59